Time;durP1;ratioP1;P1;durP2;ratioP2;P2;SDS_P1;SDS_P2;PMS_P1;PMS_P2;Temp;Humidity;BMP_temperature;BMP_pressure;BME280_temperature;BME280_humidity;BME280_pressure;Samples;Min_cycle;Max_cycle;Signal;HPM_P1;HPM_P2
2022/04/30 00:00:46;;;;;;;12.40;8.90;;;;;;;;;;4956085;28;20202;-78
2022/04/30 00:03:14;;;;;;;14.73;8.87;;;;;;;;;;4954623;29;20294;-76
2022/04/30 00:05:41;;;;;;;14.17;9.60;;;;;;;;;;4955081;29;20630;-76
2022/04/30 00:08:10;;;;;;;16.23;8.73;;;;;;;;;;4950102;28;20251;-76
2022/04/30 00:10:38;;;;;;;14.83;9.20;;;;;;;;;;4936613;29;20297;-76
2022/04/30 00:13:06;;;;;;;13.83;9.33;;;;;;;;;;4918947;29;20244;-78
2022/04/30 00:15:34;;;;;;;18.20;10.10;;;;;;;;;;4916531;29;20218;-77
2022/04/30 00:18:02;;;;;;;15.20;9.10;;;;;;;;;;4926848;29;20625;-76
2022/04/30 00:20:30;;;;;;;16.87;9.97;;;;;;;;;;4934788;29;21440;-75
2022/04/30 00:22:57;;;;;;;17.60;10.27;;;;;;;;;;4935931;29;20257;-76
2022/04/30 00:25:26;;;;;;;15.20;9.73;;;;;;;;;;4935809;29;20221;-77
2022/04/30 00:27:53;;;;;;;17.00;10.30;;;;;;;;;;4924280;29;20296;-76
2022/04/30 00:30:20;;;;;;;20.80;10.90;;;;;;;;;;4920928;29;20240;-76
2022/04/30 00:32:48;;;;;;;17.03;11.03;;;;;;;;;;4927468;29;20311;-78
2022/04/30 00:35:15;;;;;;;18.63;11.20;;;;;;;;;;4928938;29;20213;-78
2022/04/30 00:37:42;;;;;;;16.13;10.80;;;;;;;;;;4935257;29;20239;-79
2022/04/30 00:40:10;;;;;;;14.07;10.40;;;;;;;;;;4935421;29;20296;-78
2022/04/30 00:42:39;;;;;;;17.90;11.13;;;;;;;;;;4935809;29;20287;-78
2022/04/30 00:45:06;;;;;;;18.73;11.07;;;;;;;;;;4927684;29;20283;-78
2022/04/30 00:47:33;;;;;;;17.40;11.43;;;;;;;;;;4917435;29;20245;-78
2022/04/30 00:50:01;;;;;;;20.97;11.53;;;;;;;;;;4935410;29;20759;-78
2022/04/30 00:52:28;;;;;;;19.37;11.83;;;;;;;;;;4934178;29;20692;-78
2022/04/30 00:54:59;;;;;;;19.13;12.50;;;;;;;;;;4935981;29;20232;-76
2022/04/30 00:57:27;;;;;;;22.53;12.57;;;;;;;;;;4934855;29;20231;-78
2022/04/30 01:00:00;;;;;;;20.23;12.53;;;;;;;;;;4935356;29;20217;-76
2022/04/30 01:02:28;;;;;;;21.90;12.27;;;;;;;;;;4935411;29;20199;-78
2022/04/30 01:04:56;;;;;;;23.23;12.17;;;;;;;;;;4934940;29;20290;-78
2022/04/30 01:07:23;;;;;;;23.93;13.23;;;;;;;;;;4935096;29;20215;-78
2022/04/30 01:09:52;;;;;;;21.70;12.70;;;;;;;;;;4953915;28;20231;-78
2022/04/30 01:12:19;;;;;;;24.67;14.23;;;;;;;;;;4954562;29;20232;-75
2022/04/30 01:14:46;;;;;;;24.37;13.50;;;;;;;;;;4954271;29;20242;-78
2022/04/30 01:17:15;;;;;;;23.63;13.87;;;;;;;;;;4954973;29;20835;-78
2022/04/30 01:19:43;;;;;;;20.53;13.73;;;;;;;;;;4954416;29;20246;-78
2022/04/30 01:22:11;;;;;;;25.40;13.73;;;;;;;;;;4954132;29;20199;-78
2022/04/30 01:24:40;;;;;;;24.27;13.63;;;;;;;;;;4953947;29;20233;-75
2022/04/30 01:27:08;;;;;;;23.73;13.67;;;;;;;;;;4948962;28;20239;-78
2022/04/30 01:29:36;;;;;;;24.60;14.40;;;;;;;;;;4952451;28;20253;-76
2022/04/30 01:37:36;;;;;;;25.30;14.40;;;;;;;;;;4934842;29;20250;-75
2022/04/30 01:40:06;;;;;;;25.07;14.87;;;;;;;;;;4947857;29;20206;-77
2022/04/30 01:42:35;;;;;;;21.97;14.23;;;;;;;;;;4953777;28;20340;-78
2022/04/30 01:45:04;;;;;;;26.27;15.33;;;;;;;;;;4953891;28;20218;-78
2022/04/30 01:47:31;;;;;;;26.20;15.03;;;;;;;;;;4953832;29;20211;-78
2022/04/30 01:49:59;;;;;;;26.57;14.77;;;;;;;;;;4936692;29;20257;-78
2022/04/30 01:52:26;;;;;;;25.57;15.13;;;;;;;;;;4947716;29;20326;-78
2022/04/30 01:54:53;;;;;;;25.60;14.90;;;;;;;;;;4939942;29;20241;-76
2022/04/30 01:57:26;;;;;;;27.67;14.63;;;;;;;;;;4953573;29;20234;-76
2022/04/30 01:59:53;;;;;;;24.00;13.97;;;;;;;;;;4954135;29;20207;-76
2022/04/30 02:02:22;;;;;;;22.97;14.70;;;;;;;;;;4954125;29;20227;-77
2022/04/30 02:04:50;;;;;;;28.50;15.33;;;;;;;;;;4954407;29;20263;-78
2022/04/30 02:07:17;;;;;;;28.33;15.40;;;;;;;;;;4940089;29;20323;-78
2022/04/30 02:09:45;;;;;;;26.90;14.90;;;;;;;;;;4936931;29;20666;-76
2022/04/30 02:12:12;;;;;;;24.70;14.63;;;;;;;;;;4953587;29;20224;-76
2022/04/30 02:14:42;;;;;;;26.40;14.90;;;;;;;;;;4945974;29;20314;-76
2022/04/30 02:17:11;;;;;;;30.27;16.00;;;;;;;;;;4934228;29;20207;-76
2022/04/30 02:22:21;;;;;;;31.30;15.93;;;;;;;;;;4940709;29;20838;-76
2022/04/30 02:24:48;;;;;;;28.47;16.33;;;;;;;;;;4940058;28;20204;-76
2022/04/30 02:27:15;;;;;;;27.63;16.07;;;;;;;;;;4950237;29;20290;-78
2022/04/30 02:29:44;;;;;;;27.83;15.50;;;;;;;;;;4951530;28;20211;-78
2022/04/30 02:32:11;;;;;;;27.60;15.53;;;;;;;;;;4951437;28;20234;-78
2022/04/30 02:34:38;;;;;;;29.57;16.27;;;;;;;;;;4944552;29;20745;-75
2022/04/30 02:37:06;;;;;;;25.10;17.03;;;;;;;;;;4935554;29;20295;-77
2022/04/30 02:39:33;;;;;;;30.03;16.37;;;;;;;;;;4939913;28;20245;-77
2022/04/30 02:42:00;;;;;;;30.53;16.67;;;;;;;;;;4956919;29;20241;-78
2022/04/30 02:44:27;;;;;;;33.67;17.67;;;;;;;;;;4957444;29;20294;-75
2022/04/30 02:46:56;;;;;;;28.47;16.37;;;;;;;;;;4957149;29;20269;-76
2022/04/30 02:49:24;;;;;;;30.97;16.90;;;;;;;;;;4957355;29;20249;-77
2022/04/30 02:51:52;;;;;;;30.70;16.50;;;;;;;;;;4946107;29;20203;-78
2022/04/30 02:54:19;;;;;;;28.63;16.70;;;;;;;;;;4940090;29;20262;-78
2022/04/30 02:56:46;;;;;;;31.07;16.77;;;;;;;;;;4938776;29;20249;-76
2022/04/30 03:02:00;;;;;;;30.27;16.57;;;;;;;;;;4937841;29;20209;-78
2022/04/30 03:04:27;;;;;;;28.47;16.20;;;;;;;;;;4938080;29;20269;-75
2022/04/30 03:06:54;;;;;;;30.50;16.60;;;;;;;;;;4937278;29;20309;-76
2022/04/30 03:09:21;;;;;;;28.80;16.73;;;;;;;;;;4943587;28;20274;-76
2022/04/30 03:11:49;;;;;;;32.00;16.57;;;;;;;;;;4948611;29;20687;-78
2022/04/30 03:14:16;;;;;;;25.03;15.97;;;;;;;;;;4956726;29;20265;-76
2022/04/30 03:22:15;;;;;;;29.70;16.40;;;;;;;;;;4956499;29;20598;-77
2022/04/30 03:24:42;;;;;;;31.03;17.40;;;;;;;;;;4943413;29;20230;-77
2022/04/30 03:27:09;;;;;;;32.57;16.50;;;;;;;;;;4937329;29;20680;-77
2022/04/30 03:29:36;;;;;;;30.57;16.37;;;;;;;;;;4944704;28;20756;-77
2022/04/30 03:32:04;;;;;;;30.13;16.00;;;;;;;;;;4937865;29;20282;-77
2022/04/30 03:34:34;;;;;;;32.13;16.97;;;;;;;;;;4945902;28;20294;-77
2022/04/30 03:37:01;;;;;;;27.70;16.90;;;;;;;;;;4956351;28;20202;-77
2022/04/30 03:39:28;;;;;;;33.80;16.43;;;;;;;;;;4956072;29;20213;-77
2022/04/30 03:41:55;;;;;;;29.20;16.37;;;;;;;;;;4956650;28;20238;-77
2022/04/30 03:44:23;;;;;;;30.10;16.87;;;;;;;;;;4946513;29;20290;-77
2022/04/30 03:46:50;;;;;;;25.43;15.67;;;;;;;;;;4954760;29;20214;-77
2022/04/30 03:49:17;;;;;;;30.50;16.13;;;;;;;;;;4956065;29;20203;-77
2022/04/30 03:51:46;;;;;;;27.83;16.43;;;;;;;;;;4955160;28;20293;-77
2022/04/30 03:54:13;;;;;;;31.27;15.93;;;;;;;;;;4955737;29;20325;-77
2022/04/30 03:56:41;;;;;;;28.23;16.57;;;;;;;;;;4955866;29;20202;-77
2022/04/30 03:59:08;;;;;;;27.40;16.47;;;;;;;;;;4956419;29;20293;-77
2022/04/30 04:01:35;;;;;;;28.07;15.60;;;;;;;;;;4955125;28;20198;-78
2022/04/30 04:04:03;;;;;;;28.93;15.97;;;;;;;;;;4948088;29;20293;-78
2022/04/30 04:06:30;;;;;;;29.03;15.73;;;;;;;;;;4939057;29;20610;-78
2022/04/30 04:08:59;;;;;;;26.37;16.03;;;;;;;;;;4950515;29;20273;-78
2022/04/30 04:11:27;;;;;;;26.20;15.20;;;;;;;;;;4955983;29;20289;-75
2022/04/30 04:19:26;;;;;;;27.63;14.97;;;;;;;;;;4955287;29;20212;-78
2022/04/30 04:21:53;;;;;;;28.00;15.10;;;;;;;;;;4939654;29;20293;-78
2022/04/30 04:27:06;;;;;;;27.27;14.93;;;;;;;;;;4944446;29;20208;-77
2022/04/30 04:29:33;;;;;;;28.00;15.07;;;;;;;;;;4955907;29;20306;-77
2022/04/30 04:32:00;;;;;;;30.40;15.33;;;;;;;;;;4955236;29;20276;-78
2022/04/30 04:34:27;;;;;;;24.47;14.77;;;;;;;;;;4955480;29;20704;-76
2022/04/30 04:36:55;;;;;;;28.07;15.23;;;;;;;;;;4947024;29;20354;-76
2022/04/30 04:39:23;;;;;;;28.67;15.00;;;;;;;;;;4936327;29;20286;-78
2022/04/30 04:41:51;;;;;;;28.60;15.50;;;;;;;;;;4935952;29;20670;-78
2022/04/30 04:44:21;;;;;;;30.33;15.33;;;;;;;;;;4935984;29;20302;-78
2022/04/30 04:46:48;;;;;;;28.83;15.03;;;;;;;;;;4943281;29;20237;-78
2022/04/30 04:49:16;;;;;;;27.67;14.57;;;;;;;;;;4955123;29;20292;-77
2022/04/30 04:51:43;;;;;;;28.33;14.90;;;;;;;;;;4954220;29;20570;-78
2022/04/30 04:54:11;;;;;;;24.93;14.70;;;;;;;;;;4954599;29;20724;-77
2022/04/30 04:56:42;;;;;;;30.47;15.17;;;;;;;;;;4950923;28;20250;-78
2022/04/30 04:59:09;;;;;;;26.33;14.17;;;;;;;;;;4943967;29;20711;-78
2022/04/30 05:01:36;;;;;;;26.37;14.10;;;;;;;;;;4952047;29;20210;-78
2022/04/30 05:04:04;;;;;;;25.47;14.67;;;;;;;;;;4935640;29;20630;-77
2022/04/30 05:06:31;;;;;;;28.03;15.27;;;;;;;;;;4944944;29;20612;-78
2022/04/30 05:08:58;;;;;;;29.93;14.20;;;;;;;;;;4938873;29;20241;-77
2022/04/30 05:11:26;;;;;;;25.07;13.87;;;;;;;;;;4951084;28;20209;-77
2022/04/30 05:13:54;;;;;;;25.60;14.47;;;;;;;;;;4954425;28;20985;-77
2022/04/30 05:16:21;;;;;;;25.47;14.37;;;;;;;;;;4938030;29;20242;-77
2022/04/30 05:18:48;;;;;;;23.50;13.73;;;;;;;;;;4935733;29;20257;-77
2022/04/30 05:21:16;;;;;;;25.30;13.37;;;;;;;;;;4954368;29;20238;-78
2022/04/30 05:23:43;;;;;;;27.27;14.17;;;;;;;;;;4953557;28;20284;-78
2022/04/30 05:26:10;;;;;;;24.87;14.10;;;;;;;;;;4944494;29;20290;-77
2022/04/30 05:28:38;;;;;;;24.90;14.27;;;;;;;;;;4935464;29;20245;-76
2022/04/30 05:31:08;;;;;;;27.00;14.77;;;;;;;;;;4946986;28;20206;-78
2022/04/30 05:33:35;;;;;;;24.30;13.77;;;;;;;;;;4953884;29;20285;-78
2022/04/30 05:36:03;;;;;;;23.67;14.37;;;;;;;;;;4954257;29;20203;-78
2022/04/30 05:38:30;;;;;;;24.70;13.87;;;;;;;;;;4954177;29;20257;-77
2022/04/30 05:40:57;;;;;;;27.30;13.70;;;;;;;;;;4940216;29;20237;-78
2022/04/30 05:43:25;;;;;;;19.17;12.77;;;;;;;;;;4935199;29;20288;-78
2022/04/30 05:45:52;;;;;;;23.87;13.70;;;;;;;;;;4935082;29;20205;-77
2022/04/30 05:48:20;;;;;;;22.00;13.40;;;;;;;;;;4934902;29;20293;-77
2022/04/30 05:50:48;;;;;;;21.40;13.47;;;;;;;;;;4945408;29;20200;-75
2022/04/30 05:53:15;;;;;;;25.83;13.63;;;;;;;;;;4940757;29;20259;-76
2022/04/30 05:55:42;;;;;;;23.87;13.97;;;;;;;;;;4934712;29;20258;-76
2022/04/30 05:58:09;;;;;;;18.40;12.40;;;;;;;;;;4935317;29;20204;-76
2022/04/30 06:00:36;;;;;;;20.47;12.43;;;;;;;;;;4935431;29;20238;-77
2022/04/30 06:03:04;;;;;;;17.40;12.10;;;;;;;;;;4935059;29;20243;-77
2022/04/30 06:05:32;;;;;;;17.60;12.87;;;;;;;;;;4934787;29;20235;-77
2022/04/30 06:08:00;;;;;;;21.03;12.60;;;;;;;;;;4934965;29;20274;-77
2022/04/30 06:10:27;;;;;;;20.33;12.50;;;;;;;;;;4935084;29;20299;-78
2022/04/30 06:12:54;;;;;;;19.30;12.47;;;;;;;;;;4934800;29;20295;-78
2022/04/30 06:15:21;;;;;;;24.37;12.80;;;;;;;;;;4946608;29;20344;-77
2022/04/30 06:17:48;;;;;;;23.27;12.80;;;;;;;;;;4957048;28;20242;-78
2022/04/30 06:20:15;;;;;;;31.57;12.30;;;;;;;;;;4957784;29;20253;-78
2022/04/30 06:22:44;;;;;;;16.67;11.80;;;;;;;;;;4958252;28;20242;-78
2022/04/30 06:25:11;;;;;;;16.00;11.30;;;;;;;;;;4957606;28;20210;-78
2022/04/30 06:27:39;;;;;;;17.07;11.47;;;;;;;;;;4958369;28;20207;-78
2022/04/30 06:30:08;;;;;;;20.03;12.27;;;;;;;;;;4957691;28;20199;-78
2022/04/30 06:32:35;;;;;;;16.40;11.93;;;;;;;;;;4956149;28;20703;-78
2022/04/30 06:35:03;;;;;;;19.13;11.73;;;;;;;;;;4957597;29;20266;-79
2022/04/30 06:37:30;;;;;;;16.67;11.53;;;;;;;;;;4945898;29;20206;-78
2022/04/30 06:39:58;;;;;;;15.77;11.13;;;;;;;;;;4938559;29;20232;-78
2022/04/30 06:42:26;;;;;;;17.73;11.20;;;;;;;;;;4938297;29;20242;-78
2022/04/30 06:44:54;;;;;;;15.57;11.37;;;;;;;;;;4937653;29;20286;-78
2022/04/30 06:47:21;;;;;;;15.60;11.37;;;;;;;;;;4947777;29;20207;-77
2022/04/30 06:49:50;;;;;;;24.03;12.73;;;;;;;;;;4939522;29;20226;-77
2022/04/30 06:52:18;;;;;;;15.67;11.73;;;;;;;;;;4940122;29;20207;-77
2022/04/30 06:57:33;;;;;;;16.40;10.73;;;;;;;;;;4938521;29;20203;-78
2022/04/30 07:00:39;;;;;;;17.60;11.23;;;;;;;;;;4953177;28;20206;-79
2022/04/30 07:02:47;;;;;;;17.50;11.10;;;;;;;;;;4951486;28;20203;-79
2022/04/30 07:05:14;;;;;;;14.03;10.63;;;;;;;;;;4937860;29;20290;-78
2022/04/30 07:07:41;;;;;;;13.33;10.83;;;;;;;;;;4943178;29;20250;-79
2022/04/30 07:10:09;;;;;;;17.90;11.17;;;;;;;;;;4956766;29;20269;-79
2022/04/30 07:12:37;;;;;;;13.82;10.55;;;;;;;;;;4955496;29;20953;-81
2022/04/30 07:15:05;;;;;;;13.70;10.70;;;;;;;;;;4944472;29;20246;-78
2022/04/30 07:17:32;;;;;;;18.90;11.40;;;;;;;;;;4956033;29;20282;-78
2022/04/30 07:19:59;;;;;;;20.80;11.63;;;;;;;;;;4941717;29;20290;-77
2022/04/30 07:22:27;;;;;;;16.15;11.30;;;;;;;;;;4956105;29;20705;-80
2022/04/30 07:24:55;;;;;;;13.90;11.07;;;;;;;;;;4938496;29;20231;-80
2022/04/30 07:27:22;;;;;;;14.40;10.80;;;;;;;;;;4946989;29;20270;-80
2022/04/30 07:29:51;;;;;;;14.40;11.65;;;;;;;;;;4956083;28;20238;-79
2022/04/30 07:32:18;;;;;;;13.20;10.90;;;;;;;;;;4954557;29;20695;-79
2022/04/30 07:34:45;;;;;;;15.38;11.82;;;;;;;;;;4955388;29;20329;-79
2022/04/30 07:37:12;;;;;;;15.23;11.75;;;;;;;;;;4953893;29;20207;-80
2022/04/30 07:39:40;;;;;;;17.05;11.27;;;;;;;;;;4955211;28;20235;-80
2022/04/30 07:42:07;;;;;;;15.38;11.75;;;;;;;;;;4946650;29;20231;-77
2022/04/30 07:44:34;;;;;;;15.45;11.95;;;;;;;;;;4948195;29;20672;-80
2022/04/30 07:47:08;;;;;;;17.02;12.82;;;;;;;;;;4955043;29;20262;-81
2022/04/30 07:49:59;;;;;;;;;;;;;;;;;;;;;
2022/04/30 07:52:27;;;;;;;17.83;13.43;;;;;;;;;;4891718;29;20207;-83
2022/04/30 07:54:54;;;;;;;19.50;14.10;;;;;;;;;;4943741;29;20275;-84
2022/04/30 07:57:25;;;;;;;19.20;13.85;;;;;;;;;;4941248;29;20207;-84
2022/04/30 07:59:54;;;;;;;16.73;13.38;;;;;;;;;;4950680;29;20548;-84
2022/04/30 08:02:27;;;;;;;18.77;14.75;;;;;;;;;;4950974;28;20219;-85
2022/04/30 08:04:54;;;;;;;16.65;13.88;;;;;;;;;;4955061;29;20204;-84
2022/04/30 08:07:38;;;;;;;20.80;15.52;;;;;;;;;;4948677;29;20230;-84
2022/04/30 08:10:06;;;;;;;22.23;16.15;;;;;;;;;;4954189;28;20234;-80
2022/04/30 08:12:33;;;;;;;20.45;17.52;;;;;;;;;;4952844;28;20617;-83
2022/04/30 08:15:00;;;;;;;23.38;16.00;;;;;;;;;;4949967;28;20644;-82
2022/04/30 08:17:29;;;;;;;20.95;17.75;;;;;;;;;;4941241;28;20262;-81
2022/04/30 08:19:56;;;;;;;20.92;17.25;;;;;;;;;;4954240;28;20620;-81
2022/04/30 08:22:23;;;;;;;19.95;17.17;;;;;;;;;;4948618;29;20229;-80
2022/04/30 08:24:51;;;;;;;27.03;18.50;;;;;;;;;;4949081;29;20258;-82
2022/04/30 08:27:18;;;;;;;22.90;17.87;;;;;;;;;;4954006;29;20287;-82
2022/04/30 08:29:45;;;;;;;26.10;18.30;;;;;;;;;;4954241;29;20203;-82
2022/04/30 08:32:14;;;;;;;23.83;18.50;;;;;;;;;;4947792;28;20203;-83
2022/04/30 08:34:43;;;;;;;24.27;18.93;;;;;;;;;;4945033;29;20653;-80
2022/04/30 08:37:10;;;;;;;24.20;18.37;;;;;;;;;;4947228;28;20693;-80
2022/04/30 08:39:38;;;;;;;24.30;18.47;;;;;;;;;;4936816;29;20589;-79
2022/04/30 08:42:06;;;;;;;22.53;19.07;;;;;;;;;;4953332;29;20249;-79
2022/04/30 08:44:35;;;;;;;23.53;19.73;;;;;;;;;;4942658;29;20203;-80
2022/04/30 08:47:02;;;;;;;25.03;19.50;;;;;;;;;;4949026;29;20210;-81
2022/04/30 08:49:29;;;;;;;24.17;19.47;;;;;;;;;;4954910;29;20813;-81
2022/04/30 08:51:58;;;;;;;21.63;18.50;;;;;;;;;;4941181;29;20204;-81
2022/04/30 08:54:25;;;;;;;23.23;18.60;;;;;;;;;;4945555;29;20223;-82
2022/04/30 08:56:53;;;;;;;28.63;21.40;;;;;;;;;;4951352;28;20235;-81
2022/04/30 08:59:20;;;;;;;22.35;19.10;;;;;;;;;;4950574;29;20258;-81
2022/04/30 09:01:48;;;;;;;24.05;19.33;;;;;;;;;;4940497;29;20212;-80
2022/04/30 09:04:15;;;;;;;23.50;19.85;;;;;;;;;;4953776;28;20711;-79
2022/04/30 09:06:46;;;;;;;25.33;19.77;;;;;;;;;;4953387;29;20203;-78
2022/04/30 09:09:21;;;;;;;26.55;20.17;;;;;;;;;;4953105;29;20326;-78
2022/04/30 09:11:48;;;;;;;23.13;19.10;;;;;;;;;;4950951;29;20226;-79
2022/04/30 09:14:23;;;;;;;22.88;19.58;;;;;;;;;;4944429;29;20704;-78
2022/04/30 09:17:01;;;;;;;24.85;19.58;;;;;;;;;;4953040;29;20207;-79
2022/04/30 09:19:28;;;;;;;22.67;20.02;;;;;;;;;;4948716;29;20195;-78
2022/04/30 09:21:56;;;;;;;21.55;19.15;;;;;;;;;;4942293;29;20323;-78
2022/04/30 09:24:24;;;;;;;24.27;20.27;;;;;;;;;;4926762;29;20279;-79
2022/04/30 09:26:53;;;;;;;22.77;19.48;;;;;;;;;;4948315;29;20641;-78
2022/04/30 09:29:21;;;;;;;24.67;20.30;;;;;;;;;;4950507;29;20675;-78
2022/04/30 09:31:52;;;;;;;23.75;19.58;;;;;;;;;;4946228;29;20200;-78
2022/04/30 09:39:53;;;;;;;23.20;19.45;;;;;;;;;;4935184;29;20543;-79
2022/04/30 09:42:20;;;;;;;23.17;19.08;;;;;;;;;;4934270;29;20204;-78
2022/04/30 09:44:47;;;;;;;23.33;19.67;;;;;;;;;;4936737;29;20672;-78
2022/04/30 09:47:15;;;;;;;24.17;19.65;;;;;;;;;;4949584;29;20278;-78
2022/04/30 09:55:15;;;;;;;24.88;18.63;;;;;;;;;;4953601;28;20233;-78
2022/04/30 09:57:43;;;;;;;22.67;19.35;;;;;;;;;;4942671;29;20599;-78
2022/04/30 10:00:12;;;;;;;22.07;19.10;;;;;;;;;;4949053;29;20230;-78
2022/04/30 10:02:40;;;;;;;25.83;18.93;;;;;;;;;;4953659;28;20290;-77
2022/04/30 10:05:08;;;;;;;22.10;18.10;;;;;;;;;;4947847;29;20284;-77
2022/04/30 10:07:36;;;;;;;21.73;18.23;;;;;;;;;;4943455;29;20311;-77
2022/04/30 10:10:10;;;;;;;21.37;17.83;;;;;;;;;;4934376;29;20779;-77
2022/04/30 10:12:42;;;;;;;22.30;17.77;;;;;;;;;;4937518;29;20241;-77
2022/04/30 10:15:15;;;;;;;22.53;18.00;;;;;;;;;;4950216;29;20227;-78
2022/04/30 10:17:45;;;;;;;21.97;17.33;;;;;;;;;;4952699;29;20203;-77
2022/04/30 10:20:16;;;;;;;27.93;18.37;;;;;;;;;;4940249;29;20310;-77
2022/04/30 10:22:50;;;;;;;22.17;18.70;;;;;;;;;;4943204;29;20211;-78
2022/04/30 10:25:18;;;;;;;21.70;17.73;;;;;;;;;;4940588;29;20234;-78
2022/04/30 10:27:47;;;;;;;24.17;18.57;;;;;;;;;;4941392;29;20227;-77
2022/04/30 10:30:23;;;;;;;26.13;19.23;;;;;;;;;;4948012;29;20684;-77
2022/04/30 10:32:58;;;;;;;24.03;18.53;;;;;;;;;;4934376;29;20206;-78
2022/04/30 10:35:33;;;;;;;23.90;19.03;;;;;;;;;;4934285;29;20227;-77
2022/04/30 10:38:07;;;;;;;23.97;18.63;;;;;;;;;;4948458;28;20278;-78
2022/04/30 10:40:39;;;;;;;21.20;17.80;;;;;;;;;;4941275;29;20199;-78
2022/04/30 10:43:16;;;;;;;24.00;18.87;;;;;;;;;;4942342;29;20204;-76
2022/04/30 10:45:44;;;;;;;27.93;19.27;;;;;;;;;;4949354;28;20199;-77
2022/04/30 10:48:13;;;;;;;26.67;19.63;;;;;;;;;;4937359;29;20231;-78
2022/04/30 10:50:41;;;;;;;25.70;19.00;;;;;;;;;;4944775;29;20204;-78
2022/04/30 10:53:10;;;;;;;23.87;19.43;;;;;;;;;;4943894;29;20234;-77
2022/04/30 10:55:39;;;;;;;25.07;19.10;;;;;;;;;;4945762;29;20226;-80
2022/04/30 10:58:07;;;;;;;25.47;18.73;;;;;;;;;;4952950;28;20205;-77
2022/04/30 11:00:36;;;;;;;23.93;17.80;;;;;;;;;;4935929;29;20292;-79
2022/04/30 11:03:10;;;;;;;22.80;17.80;;;;;;;;;;4948755;29;20259;-80
2022/04/30 11:05:37;;;;;;;25.25;18.77;;;;;;;;;;4943099;29;20230;-78
2022/04/30 11:08:04;;;;;;;21.90;18.58;;;;;;;;;;4947355;28;20679;-78
2022/04/30 11:10:32;;;;;;;23.00;18.67;;;;;;;;;;4956772;28;20231;-78
2022/04/30 11:13:03;;;;;;;22.67;18.67;;;;;;;;;;4956455;28;20214;-78
2022/04/30 11:15:30;;;;;;;23.17;18.93;;;;;;;;;;4956597;29;20233;-78
2022/04/30 11:17:59;;;;;;;20.58;18.40;;;;;;;;;;4956067;29;20298;-79
2022/04/30 11:20:27;;;;;;;23.00;18.93;;;;;;;;;;4940436;29;20203;-79
2022/04/30 11:22:55;;;;;;;23.27;19.13;;;;;;;;;;4947950;29;20750;-78
2022/04/30 11:25:23;;;;;;;23.95;18.38;;;;;;;;;;4955974;29;20234;-78
2022/04/30 11:27:50;;;;;;;24.13;19.02;;;;;;;;;;4949668;29;20238;-78
2022/04/30 11:30:21;;;;;;;21.65;19.33;;;;;;;;;;4949790;29;20200;-79
2022/04/30 11:32:49;;;;;;;22.73;18.92;;;;;;;;;;4942470;29;20254;-78
2022/04/30 11:35:19;;;;;;;22.77;19.38;;;;;;;;;;4955893;29;20229;-79
2022/04/30 11:37:46;;;;;;;21.50;18.60;;;;;;;;;;4955243;29;20258;-78
2022/04/30 11:40:13;;;;;;;22.13;18.92;;;;;;;;;;4952283;29;20762;-79
2022/04/30 11:42:41;;;;;;;25.80;19.45;;;;;;;;;;4949282;29;20217;-79
2022/04/30 11:45:09;;;;;;;20.88;18.50;;;;;;;;;;4951259;29;20208;-79
2022/04/30 11:47:37;;;;;;;22.90;18.70;;;;;;;;;;4953314;29;20203;-79
2022/04/30 11:50:05;;;;;;;24.20;19.50;;;;;;;;;;4943466;29;20625;-79
2022/04/30 11:52:35;;;;;;;21.10;18.52;;;;;;;;;;4952063;29;20203;-79
2022/04/30 11:55:03;;;;;;;22.90;18.48;;;;;;;;;;4948892;29;20231;-79
2022/04/30 11:57:30;;;;;;;24.40;18.23;;;;;;;;;;4947486;29;20261;-78
2022/04/30 11:59:58;;;;;;;19.70;17.20;;;;;;;;;;4948961;29;20200;-79
2022/04/30 12:02:25;;;;;;;23.13;19.27;;;;;;;;;;4953160;29;20199;-78
2022/04/30 12:04:52;;;;;;;20.30;17.33;;;;;;;;;;4942380;29;20282;-79
2022/04/30 12:07:19;;;;;;;20.63;17.67;;;;;;;;;;4955141;28;20588;-78
2022/04/30 12:09:50;;;;;;;25.80;19.00;;;;;;;;;;4945600;29;20626;-78
2022/04/30 12:12:18;;;;;;;22.95;18.52;;;;;;;;;;4954378;28;20210;-79
2022/04/30 12:14:45;;;;;;;20.60;18.40;;;;;;;;;;4954757;29;20290;-79
2022/04/30 12:17:13;;;;;;;22.75;18.13;;;;;;;;;;4948164;29;20762;-79
2022/04/30 12:25:14;;;;;;;17.90;16.00;;;;;;;;;;4954508;29;20249;-79
2022/04/30 12:27:42;;;;;;;19.17;16.20;;;;;;;;;;4949592;28;20294;-79
2022/04/30 12:30:14;;;;;;;19.17;17.00;;;;;;;;;;4948967;28;20282;-78
2022/04/30 12:32:48;;;;;;;18.90;16.63;;;;;;;;;;4949046;29;20950;-78
2022/04/30 12:35:15;;;;;;;21.38;17.02;;;;;;;;;;4955139;29;20229;-78
2022/04/30 12:37:43;;;;;;;18.60;16.50;;;;;;;;;;4953585;29;20207;-79
2022/04/30 12:40:12;;;;;;;19.27;16.05;;;;;;;;;;4955651;29;20234;-79
2022/04/30 12:42:40;;;;;;;18.25;15.90;;;;;;;;;;4955387;29;20258;-79
2022/04/30 12:45:08;;;;;;;17.45;15.05;;;;;;;;;;4955314;29;20556;-79
2022/04/30 12:47:35;;;;;;;19.27;14.93;;;;;;;;;;4948400;28;20250;-78
2022/04/30 12:50:03;;;;;;;19.15;15.98;;;;;;;;;;4953711;29;20235;-78
2022/04/30 12:52:30;;;;;;;17.10;15.02;;;;;;;;;;4943316;29;20298;-79
2022/04/30 12:54:57;;;;;;;17.60;14.75;;;;;;;;;;4936108;29;20680;-79
2022/04/30 12:57:26;;;;;;;19.15;15.73;;;;;;;;;;4942649;29;20271;-78
2022/04/30 12:59:54;;;;;;;18.10;15.15;;;;;;;;;;4945021;29;20214;-79
2022/04/30 13:02:23;;;;;;;22.52;15.00;;;;;;;;;;4950801;28;20289;-79
2022/04/30 13:04:50;;;;;;;16.92;14.75;;;;;;;;;;4948935;28;20204;-79
2022/04/30 13:07:18;;;;;;;18.13;14.50;;;;;;;;;;4937643;29;20223;-79
2022/04/30 13:15:16;;;;;;;19.90;15.57;;;;;;;;;;4951891;29;20347;-78
2022/04/30 13:17:44;;;;;;;21.65;15.45;;;;;;;;;;4950478;29;20694;-79
2022/04/30 13:20:12;;;;;;;16.98;14.68;;;;;;;;;;4950920;28;20229;-79
2022/04/30 13:22:39;;;;;;;18.27;14.95;;;;;;;;;;4954323;28;20234;-79
2022/04/30 13:25:06;;;;;;;19.13;15.32;;;;;;;;;;4938516;29;20216;-79
2022/04/30 13:27:36;;;;;;;17.20;15.20;;;;;;;;;;4949286;29;20196;-78
2022/04/30 13:30:03;;;;;;;16.35;14.60;;;;;;;;;;4944046;29;20207;-79
2022/04/30 13:32:31;;;;;;;17.17;15.35;;;;;;;;;;4940787;29;20207;-79
2022/04/30 13:34:59;;;;;;;17.85;15.13;;;;;;;;;;4946617;29;20203;-78
2022/04/30 13:37:26;;;;;;;17.10;15.25;;;;;;;;;;4946937;29;20258;-79
2022/04/30 13:39:53;;;;;;;19.10;16.17;;;;;;;;;;4943129;29;20626;-79
2022/04/30 13:42:21;;;;;;;20.80;15.60;;;;;;;;;;4938094;29;20200;-79
2022/04/30 13:44:49;;;;;;;19.95;16.58;;;;;;;;;;4948619;29;20252;-79
2022/04/30 13:47:16;;;;;;;20.65;16.10;;;;;;;;;;4944194;29;20199;-78
2022/04/30 13:49:44;;;;;;;20.92;16.48;;;;;;;;;;4953701;29;20266;-79
2022/04/30 13:52:11;;;;;;;18.00;16.10;;;;;;;;;;4952506;29;20207;-78
2022/04/30 13:54:39;;;;;;;18.70;16.20;;;;;;;;;;4939707;29;20199;-79
2022/04/30 13:57:06;;;;;;;18.67;15.70;;;;;;;;;;4946120;29;20226;-78
2022/04/30 13:59:34;;;;;;;18.55;14.93;;;;;;;;;;4946378;29;20956;-77
2022/04/30 14:02:04;;;;;;;18.05;14.85;;;;;;;;;;4943527;29;20203;-78
2022/04/30 14:04:33;;;;;;;18.30;15.35;;;;;;;;;;4944211;29;20562;-78
2022/04/30 14:07:02;;;;;;;17.38;14.80;;;;;;;;;;4947611;29;20196;-78
2022/04/30 14:09:29;;;;;;;20.10;15.52;;;;;;;;;;4942902;28;20245;-79
2022/04/30 14:11:57;;;;;;;18.65;15.93;;;;;;;;;;4949496;29;20207;-79
2022/04/30 14:19:52;;;;;;;20.10;15.65;;;;;;;;;;4952959;28;20203;-79
2022/04/30 14:22:19;;;;;;;19.58;14.98;;;;;;;;;;4940882;29;20211;-78
2022/04/30 14:24:47;;;;;;;16.30;14.18;;;;;;;;;;4951747;29;20203;-79
2022/04/30 14:27:14;;;;;;;18.50;14.93;;;;;;;;;;4936826;29;20626;-79
2022/04/30 14:29:42;;;;;;;17.92;15.40;;;;;;;;;;4941894;29;20259;-79
2022/04/30 14:32:11;;;;;;;17.67;15.60;;;;;;;;;;4941076;29;20256;-79
2022/04/30 14:34:39;;;;;;;18.73;15.95;;;;;;;;;;4953722;28;20288;-79
2022/04/30 14:37:06;;;;;;;17.85;15.05;;;;;;;;;;4946909;28;20221;-79
2022/04/30 14:39:33;;;;;;;16.45;14.38;;;;;;;;;;4945937;29;20242;-79
2022/04/30 14:42:01;;;;;;;17.55;15.55;;;;;;;;;;4943743;29;20204;-79
2022/04/30 14:44:29;;;;;;;17.38;15.20;;;;;;;;;;4949461;29;20628;-79
2022/04/30 14:46:56;;;;;;;18.55;15.50;;;;;;;;;;4957238;29;20306;-79
2022/04/30 14:49:25;;;;;;;18.70;16.33;;;;;;;;;;4957220;29;20210;-79
2022/04/30 14:51:52;;;;;;;22.42;17.17;;;;;;;;;;4946003;29;20238;-79
2022/04/30 14:54:19;;;;;;;19.27;16.80;;;;;;;;;;4938478;29;20649;-79
2022/04/30 14:56:46;;;;;;;19.13;15.77;;;;;;;;;;4946510;29;20286;-79
2022/04/30 14:59:14;;;;;;;18.77;16.77;;;;;;;;;;4943583;29;20231;-79
2022/04/30 15:01:41;;;;;;;18.85;16.05;;;;;;;;;;4941587;28;20257;-79
2022/04/30 15:04:08;;;;;;;19.92;17.30;;;;;;;;;;4949194;28;20215;-79
2022/04/30 15:06:37;;;;;;;19.00;16.55;;;;;;;;;;4956861;28;20231;-79
2022/04/30 15:09:05;;;;;;;22.70;17.15;;;;;;;;;;4948874;29;20294;-79
2022/04/30 15:11:32;;;;;;;18.40;16.25;;;;;;;;;;4941506;29;20255;-79
2022/04/30 15:13:59;;;;;;;18.92;16.40;;;;;;;;;;4953155;29;20259;-79
2022/04/30 15:16:26;;;;;;;20.50;17.70;;;;;;;;;;4945224;29;20711;-79
2022/04/30 15:18:53;;;;;;;23.45;17.25;;;;;;;;;;4948211;29;20199;-79